createdAt,value
2017-02-10T00:00:21.031Z,-0.92
2017-02-10T00:01:21.048Z,-0.83
2017-02-10T00:02:21.205Z,-0.87
2017-02-10T00:03:21.083Z,-0.84
2017-02-10T00:04:21.030Z,-0.83
2017-02-10T00:05:21.055Z,-0.95
2017-02-10T00:06:21.062Z,-1.07
2017-02-10T00:07:21.054Z,-1.03
2017-02-10T00:08:21.053Z,-0.91
2017-02-10T00:09:21.081Z,-0.99
2017-02-10T00:10:21.077Z,-1.02
2017-02-10T00:11:21.061Z,-1
2017-02-10T00:12:21.056Z,-0.91
2017-02-10T00:13:21.155Z,-0.86
2017-02-10T00:14:21.046Z,-0.92
2017-02-10T00:15:21.118Z,-0.99
2017-02-10T00:16:21.135Z,-0.91
2017-02-10T00:17:21.068Z,-0.87
2017-02-10T00:18:21.054Z,-1.03
2017-02-10T00:19:21.058Z,-0.83
2017-02-10T00:20:21.062Z,-1
2017-02-10T00:21:21.041Z,-0.91
2017-02-10T00:22:21.054Z,-0.95
2017-02-10T00:23:21.061Z,-0.86
2017-02-10T00:24:21.073Z,-0.92
2017-02-10T00:25:21.139Z,-0.87
2017-02-10T00:26:21.089Z,-0.84
2017-02-10T00:27:21.077Z,-0.83
2017-02-10T00:28:21.114Z,-0.73
2017-02-10T00:29:21.121Z,-0.91
2017-02-10T00:30:21.086Z,-1.06
2017-02-10T00:31:21.089Z,-0.95
2017-02-10T00:32:21.112Z,-0.83
2017-02-10T00:33:21.091Z,-0.8
2017-02-10T00:34:21.107Z,-0.83
2017-02-10T00:35:21.092Z,-0.95
2017-02-10T00:36:21.138Z,-0.83
2017-02-10T00:37:21.103Z,-1
2017-02-10T00:38:21.152Z,-0.95
2017-02-10T00:39:21.153Z,-0.97
2017-02-10T00:40:21.080Z,-0.77
2017-02-10T00:41:21.073Z,-0.89
2017-02-10T00:42:21.167Z,-0.84
2017-02-10T00:43:21.122Z,-0.99
2017-02-10T00:44:21.106Z,-0.92
2017-02-10T00:45:21.111Z,-1
2017-02-10T00:46:21.059Z,-0.81
2017-02-10T00:47:21.093Z,-0.83
2017-02-10T00:48:21.099Z,-0.83
2017-02-10T00:49:21.061Z,-0.87
2017-02-10T00:50:21.065Z,-0.73
2017-02-10T00:51:21.090Z,-1.03
2017-02-10T00:52:21.089Z,-0.91
2017-02-10T00:53:21.082Z,-0.89
2017-02-10T00:54:21.080Z,-0.94
2017-02-10T00:55:21.063Z,-0.91
2017-02-10T00:56:21.165Z,-0.92
2017-02-10T00:57:21.129Z,-0.86
2017-02-10T00:58:21.195Z,-0.87
2017-02-10T00:59:21.100Z,-0.87
2017-02-10T01:00:21.096Z,-0.89
2017-02-10T01:01:21.102Z,-0.86
2017-02-10T01:02:21.093Z,-0.84
2017-02-10T01:03:21.101Z,-0.8
2017-02-10T01:04:21.134Z,-0.8
2017-02-10T01:05:21.092Z,-0.83
2017-02-10T01:06:21.078Z,-0.83
2017-02-10T01:07:21.131Z,-0.89
2017-02-10T01:08:21.078Z,-0.84
2017-02-10T01:09:21.099Z,-0.92
2017-02-10T01:10:21.090Z,-0.84
2017-02-10T01:11:21.097Z,-0.99
2017-02-10T01:12:21.088Z,-0.95
2017-02-10T01:13:21.098Z,-0.7
2017-02-10T01:14:21.112Z,-0.91
2017-02-10T01:15:21.098Z,-0.95
2017-02-10T01:16:21.088Z,-0.81
2017-02-10T01:17:21.080Z,-0.83
2017-02-10T01:18:21.102Z,-0.91
2017-02-10T01:19:21.083Z,-0.75
2017-02-10T01:20:21.141Z,-0.81
2017-02-10T01:21:21.086Z,-0.87
2017-02-10T01:22:21.142Z,-0.89
2017-02-10T01:23:21.104Z,-0.81
2017-02-10T01:24:21.100Z,-0.69
2017-02-10T01:25:21.088Z,-0.94
2017-02-10T01:26:21.092Z,-0.86
2017-02-10T01:27:21.118Z,-0.81
2017-02-10T01:28:21.111Z,-0.84
2017-02-10T01:29:21.113Z,-0.83
2017-02-10T01:30:21.109Z,-0.78
2017-02-10T01:31:21.113Z,-0.86
2017-02-10T01:32:21.085Z,-0.87
2017-02-10T01:33:21.098Z,-0.97
2017-02-10T01:34:21.108Z,-0.73
2017-02-10T01:35:21.102Z,-0.81
2017-02-10T01:36:21.092Z,-0.89
2017-02-10T01:37:21.084Z,-0.84
2017-02-10T01:38:21.114Z,-0.89
2017-02-10T01:39:21.112Z,-0.89
2017-02-10T01:40:21.187Z,-0.84
2017-02-10T01:41:21.117Z,-0.92
2017-02-10T01:42:21.098Z,-0.87
2017-02-10T01:43:21.139Z,-0.75
2017-02-10T01:44:21.107Z,-0.94
2017-02-10T01:45:21.108Z,-0.94
2017-02-10T01:46:21.164Z,-0.89
2017-02-10T01:47:21.099Z,-0.92
2017-02-10T01:48:21.101Z,-0.83
2017-02-10T01:49:21.132Z,-0.94
2017-02-10T01:50:21.121Z,-0.89
2017-02-10T01:51:21.136Z,-0.92
2017-02-10T01:52:21.101Z,-0.97
2017-02-10T01:53:21.158Z,-0.8
2017-02-10T01:54:21.167Z,-0.83
2017-02-10T01:55:21.112Z,-1
2017-02-10T01:56:21.104Z,-0.99
2017-02-10T01:57:21.124Z,-0.83
2017-02-10T01:58:21.115Z,-0.81
2017-02-10T01:59:21.132Z,-0.83
2017-02-10T02:00:21.134Z,-0.91
2017-02-10T02:01:21.122Z,-0.97
2017-02-10T02:02:21.162Z,-0.97
2017-02-10T02:03:21.122Z,-0.83
2017-02-10T02:04:21.127Z,-0.91
2017-02-10T02:05:21.119Z,-0.87
2017-02-10T02:06:21.139Z,-0.87
2017-02-10T02:07:21.124Z,-0.84
2017-02-10T02:08:21.108Z,-0.83
2017-02-10T02:09:21.121Z,-0.69
2017-02-10T02:10:21.128Z,-0.83
2017-02-10T02:11:21.112Z,-0.84
2017-02-10T02:12:21.129Z,-0.99
2017-02-10T02:13:21.138Z,-0.86
2017-02-10T02:14:21.141Z,-0.86
2017-02-10T02:15:21.111Z,-0.8
2017-02-10T02:16:21.128Z,-0.86
2017-02-10T02:17:21.117Z,-1.05
2017-02-10T02:18:21.123Z,-0.72
2017-02-10T02:19:21.496Z,-0.92
2017-02-10T02:20:21.130Z,-0.89
2017-02-10T02:21:21.111Z,-0.84
2017-02-10T02:22:21.124Z,-0.94
2017-02-10T02:23:21.156Z,-0.75
2017-02-10T02:24:21.134Z,-0.84
2017-02-10T02:25:21.123Z,-0.89
2017-02-10T02:26:21.119Z,-0.84
2017-02-10T02:27:21.157Z,-0.92
2017-02-10T02:28:21.142Z,-1.02
2017-02-10T02:29:21.134Z,-0.81
2017-02-10T02:30:21.129Z,-0.89
2017-02-10T02:31:21.132Z,-0.84
2017-02-10T02:32:21.116Z,-0.81
2017-02-10T02:33:21.130Z,-0.92
2017-02-10T02:34:21.127Z,-0.99
2017-02-10T02:35:21.136Z,-0.75
2017-02-10T02:36:21.113Z,-0.95
2017-02-10T02:37:21.122Z,-0.81
2017-02-10T02:38:21.141Z,-0.84
2017-02-10T02:39:21.118Z,-0.94
2017-02-10T02:40:21.133Z,-0.86
2017-02-10T02:41:21.148Z,-0.89
2017-02-10T02:42:21.163Z,-0.97
2017-02-10T02:43:21.134Z,-0.94
2017-02-10T02:44:21.154Z,-0.97
2017-02-10T02:45:21.122Z,-0.97
2017-02-10T02:46:21.161Z,-0.84
2017-02-10T02:47:21.131Z,-0.73
2017-02-10T02:48:21.139Z,-1.03
2017-02-10T02:49:21.156Z,-0.92
2017-02-10T02:50:21.148Z,-0.86
2017-02-10T02:51:21.136Z,-0.77
2017-02-10T02:52:21.152Z,-0.92
2017-02-10T02:53:21.136Z,-0.77
2017-02-10T02:54:21.137Z,-0.94
2017-02-10T02:55:21.155Z,-0.92
2017-02-10T02:56:21.176Z,-0.86
2017-02-10T02:57:21.141Z,-0.87
2017-02-10T02:58:21.132Z,-0.94
2017-02-10T02:59:21.142Z,-0.89
2017-02-10T03:00:21.168Z,-0.84
2017-02-10T03:01:21.153Z,-0.99
2017-02-10T03:02:21.163Z,-0.83
2017-02-10T03:03:21.136Z,-0.92
2017-02-10T03:04:21.137Z,-0.92
2017-02-10T03:05:21.160Z,-0.91
2017-02-10T03:06:21.143Z,-0.92
2017-02-10T03:07:21.158Z,-0.86
2017-02-10T03:08:21.163Z,-0.94
2017-02-10T03:09:21.142Z,-0.92
2017-02-10T03:10:21.152Z,-0.89
2017-02-10T03:11:21.145Z,-0.87
2017-02-10T03:12:21.135Z,-0.92
2017-02-10T03:13:21.199Z,-0.89
2017-02-10T03:14:21.189Z,-0.94
2017-02-10T03:15:21.151Z,-0.89
2017-02-10T03:16:21.191Z,-0.91
2017-02-10T03:17:21.156Z,-1
2017-02-10T03:18:21.150Z,-0.84
2017-02-10T03:19:21.163Z,-0.91
2017-02-10T03:20:21.142Z,-1.05
2017-02-10T03:21:21.163Z,-0.87
2017-02-10T03:22:21.167Z,-0.97
2017-02-10T03:23:21.193Z,-0.94
2017-02-10T03:24:21.157Z,-0.92
2017-02-10T03:25:21.161Z,-1
2017-02-10T03:26:21.172Z,-1.02
2017-02-10T03:27:21.179Z,-0.95
2017-02-10T03:28:21.182Z,-0.97
2017-02-10T03:29:21.161Z,-0.99
2017-02-10T03:30:21.168Z,-0.89
2017-02-10T03:31:21.162Z,-0.83
2017-02-10T03:32:21.156Z,-0.94
2017-02-10T03:33:21.152Z,-1
2017-02-10T03:34:21.163Z,-1.02
2017-02-10T03:35:21.164Z,-0.95
2017-02-10T03:36:21.166Z,-1.03
2017-02-10T03:37:21.150Z,-0.89
2017-02-10T03:38:21.152Z,-0.86
2017-02-10T03:39:21.182Z,-0.92
2017-02-10T03:40:21.155Z,-0.95
2017-02-10T03:41:21.186Z,-0.83
2017-02-10T03:42:21.177Z,-0.95
2017-02-10T03:43:21.165Z,-0.78
2017-02-10T03:44:21.163Z,-0.99
2017-02-10T03:45:21.154Z,-0.89
2017-02-10T03:46:21.164Z,-0.84
2017-02-10T03:47:21.184Z,-0.91
2017-02-10T03:48:21.160Z,-1.03
2017-02-10T03:49:21.179Z,-1.1
2017-02-10T03:50:21.170Z,-0.86
2017-02-10T03:51:21.180Z,-0.99
2017-02-10T03:52:21.204Z,-0.86
2017-02-10T03:53:21.193Z,-1.05
2017-02-10T03:54:21.171Z,-1.13
2017-02-10T03:55:21.226Z,-0.91
2017-02-10T03:56:21.171Z,-1.03
2017-02-10T03:57:21.227Z,-0.92
2017-02-10T03:58:21.189Z,-1.07
2017-02-10T03:59:21.191Z,-1
2017-02-10T04:00:21.177Z,-0.97
2017-02-10T04:01:21.188Z,-0.95
2017-02-10T04:02:21.187Z,-1.03
2017-02-10T04:03:21.191Z,-0.89
2017-02-10T04:04:21.175Z,-1.03
2017-02-10T04:05:21.185Z,-1.03
2017-02-10T04:06:21.203Z,-0.86
2017-02-10T04:07:21.171Z,-0.89
2017-02-10T04:08:21.207Z,-1.12
2017-02-10T04:09:21.193Z,-0.86
2017-02-10T04:10:21.198Z,-1.02
2017-02-10T04:11:21.181Z,-1.02
2017-02-10T04:12:21.216Z,-0.99
2017-02-10T04:13:21.189Z,-0.94
2017-02-10T04:14:21.198Z,-1.12
2017-02-10T04:15:21.201Z,-0.99
2017-02-10T04:16:21.188Z,-0.92
2017-02-10T04:17:21.176Z,-1.05
2017-02-10T04:18:21.200Z,-0.97
2017-02-10T04:19:21.214Z,-1.07
2017-02-10T04:20:21.188Z,-0.87
2017-02-10T04:21:21.206Z,-1.03
2017-02-10T04:22:21.202Z,-1
2017-02-10T04:23:21.192Z,-0.99
2017-02-10T04:24:21.190Z,-1.05
2017-02-10T04:25:21.208Z,-1.03
2017-02-10T04:26:21.212Z,-0.83
2017-02-10T04:27:21.194Z,-0.94
2017-02-10T04:28:21.226Z,-0.91
2017-02-10T04:29:21.208Z,-0.97
2017-02-10T04:30:21.214Z,-1.03
2017-02-10T04:31:21.187Z,-1.02
2017-02-10T04:32:21.204Z,-1.06
2017-02-10T04:33:21.200Z,-1.15
2017-02-10T04:34:21.203Z,-0.92
2017-02-10T04:35:21.218Z,-0.89
2017-02-10T04:36:21.203Z,-0.89
2017-02-10T04:37:21.210Z,-0.86
2017-02-10T04:38:21.191Z,-0.73
2017-02-10T04:39:21.227Z,-0.95
2017-02-10T04:40:21.210Z,-0.99
2017-02-10T04:41:21.229Z,-1.07
2017-02-10T04:42:21.192Z,-0.89
2017-02-10T04:43:21.204Z,-1.13
2017-02-10T04:44:21.219Z,-1.03
2017-02-10T04:45:21.222Z,-0.95
2017-02-10T04:46:21.195Z,-0.83
2017-02-10T04:47:21.212Z,-0.97
2017-02-10T04:48:21.213Z,-0.92
2017-02-10T04:49:21.352Z,-0.97
2017-02-10T04:50:21.214Z,-0.87
2017-02-10T04:51:21.204Z,-0.92
2017-02-10T04:52:21.225Z,-0.91
2017-02-10T04:53:21.206Z,-1.02
2017-02-10T04:54:21.224Z,-0.84
2017-02-10T04:55:21.226Z,-0.89
2017-02-10T04:56:21.229Z,-0.92
2017-02-10T04:57:21.245Z,-1.06
2017-02-10T04:58:21.229Z,-1.02
2017-02-10T04:59:21.206Z,-0.87
2017-02-10T05:00:21.219Z,-0.99
2017-02-10T05:01:21.233Z,-0.91
2017-02-10T05:02:21.201Z,-1.05
2017-02-10T05:03:21.232Z,-0.92
2017-02-10T05:04:21.215Z,-0.91
2017-02-10T05:05:21.215Z,-0.99
2017-02-10T05:06:21.225Z,-0.97
2017-02-10T05:07:21.219Z,-1.02
2017-02-10T05:08:21.205Z,-1.05
2017-02-10T05:09:21.200Z,-1.05
2017-02-10T05:10:21.205Z,-1.13
2017-02-10T05:11:21.224Z,-1
2017-02-10T05:12:21.208Z,-0.97
2017-02-10T05:13:21.214Z,-1.03
2017-02-10T05:14:21.201Z,-1.07
2017-02-10T05:15:21.236Z,-1.06
2017-02-10T05:16:21.206Z,-0.87
2017-02-10T05:17:21.225Z,-0.92
2017-02-10T05:18:21.239Z,-1.1
2017-02-10T05:19:21.212Z,-1.02
2017-02-10T05:20:21.230Z,-1.06
2017-02-10T05:21:21.238Z,-1.03
2017-02-10T05:22:21.258Z,-0.99
2017-02-10T05:23:21.320Z,-1.03
2017-02-10T05:24:21.219Z,-0.99
2017-02-10T05:25:21.293Z,-1.06
2017-02-10T05:26:21.229Z,-0.92
2017-02-10T05:27:21.239Z,-0.94
2017-02-10T05:28:21.238Z,-1
2017-02-10T05:29:21.251Z,-1.03
2017-02-10T05:30:21.253Z,-1.06
2017-02-10T05:31:21.236Z,-0.94
2017-02-10T05:32:21.234Z,-0.99
2017-02-10T05:33:21.238Z,-1.06
2017-02-10T05:34:21.217Z,-1.02
2017-02-10T05:35:21.248Z,-1.03
2017-02-10T05:36:21.251Z,-1.07
2017-02-10T05:37:21.232Z,-1.03
2017-02-10T05:38:21.229Z,-0.95
2017-02-10T05:39:21.250Z,-0.94
2017-02-10T05:40:21.230Z,-1
2017-02-10T05:41:21.236Z,-1
2017-02-10T05:42:21.266Z,-1.09
2017-02-10T05:43:21.242Z,-0.97
2017-02-10T05:44:21.246Z,-1.07
2017-02-10T05:45:21.221Z,-0.91
2017-02-10T05:46:21.245Z,-0.99
2017-02-10T05:47:21.233Z,-1.06
2017-02-10T05:48:21.238Z,-1.03
2017-02-10T05:49:21.238Z,-1.09
2017-02-10T05:50:21.242Z,-0.94
2017-02-10T05:51:21.407Z,-0.94
2017-02-10T05:52:21.250Z,-0.97
2017-02-10T05:53:21.245Z,-0.99
2017-02-10T05:54:21.241Z,-0.91
2017-02-10T05:55:21.242Z,-1.09
2017-02-10T05:56:21.254Z,-1
2017-02-10T05:57:21.272Z,-0.97
2017-02-10T05:58:21.258Z,-1.17
2017-02-10T05:59:21.405Z,-1
2017-02-10T06:00:21.264Z,-0.92
2017-02-10T06:01:21.314Z,-1.03
2017-02-10T06:02:21.233Z,-1.06
2017-02-10T06:03:21.255Z,-1.02
2017-02-10T06:04:21.280Z,-0.99
2017-02-10T06:05:21.269Z,-1.13
2017-02-10T06:06:21.273Z,-1
2017-02-10T06:07:21.283Z,-0.95
2017-02-10T06:08:21.260Z,-0.97
2017-02-10T06:09:21.301Z,-1.12
2017-02-10T06:10:21.260Z,-1.06
2017-02-10T06:11:21.250Z,-1.09
2017-02-10T06:12:21.274Z,-1
2017-02-10T06:13:21.252Z,-1.07
2017-02-10T06:14:21.279Z,-1
2017-02-10T06:15:21.233Z,-1.02
2017-02-10T06:16:21.257Z,-0.92
2017-02-10T06:17:21.273Z,-0.97
2017-02-10T06:18:21.285Z,-1
2017-02-10T06:19:21.278Z,-1.06
2017-02-10T06:20:21.298Z,-1
2017-02-10T06:21:21.295Z,-0.97
2017-02-10T06:22:21.355Z,-0.94
2017-02-10T06:23:21.287Z,-1.02
2017-02-10T06:24:21.282Z,-0.99
2017-02-10T06:25:21.264Z,-1.03
2017-02-10T06:26:21.258Z,-0.92
2017-02-10T06:27:21.257Z,-1.07
2017-02-10T06:28:21.346Z,-1.03
2017-02-10T06:29:21.260Z,-0.97
2017-02-10T06:30:21.276Z,-0.94
2017-02-10T06:31:21.259Z,-1.03
2017-02-10T06:32:21.257Z,-1.05
2017-02-10T06:33:21.257Z,-0.94
2017-02-10T06:34:21.254Z,-0.95
2017-02-10T06:35:21.259Z,-1.07
2017-02-10T06:36:21.308Z,-1
2017-02-10T06:37:21.279Z,-1.06
2017-02-10T06:38:21.279Z,-0.97
2017-02-10T06:39:21.257Z,-1.05
2017-02-10T06:40:21.306Z,-1.02
2017-02-10T06:41:21.276Z,-1
2017-02-10T06:42:21.288Z,-1.05
2017-02-10T06:43:21.266Z,-1.09
2017-02-10T06:44:21.261Z,-1.06
2017-02-10T06:45:22.290Z,-1.07
2017-02-10T06:46:21.289Z,-0.95
2017-02-10T06:47:21.383Z,-1.02
2017-02-10T06:48:21.272Z,-1.02
2017-02-10T06:49:21.344Z,-0.97
2017-02-10T06:50:21.262Z,-1.02
2017-02-10T06:51:21.286Z,-0.92
2017-02-10T06:52:21.274Z,-0.99
2017-02-10T06:53:21.335Z,-1.09
2017-02-10T06:54:21.276Z,-1.07
2017-02-10T06:55:22.530Z,-0.99
2017-02-10T06:56:21.345Z,-1.03
2017-02-10T06:57:21.324Z,-0.89
2017-02-10T06:58:21.289Z,-1.05
2017-02-10T06:59:21.278Z,-0.94
2017-02-10T07:00:21.450Z,-1.02
2017-02-10T07:01:21.461Z,-0.89
2017-02-10T07:02:21.271Z,-1.06
2017-02-10T07:03:21.279Z,-1.05
2017-02-10T07:04:21.300Z,-0.99
2017-02-10T07:05:21.306Z,-0.97
2017-02-10T07:06:21.341Z,-1.02
2017-02-10T07:07:21.298Z,-1.02
2017-02-10T07:08:21.311Z,-1.07
2017-02-10T07:09:21.296Z,-1.05
2017-02-10T07:10:21.351Z,-0.97
2017-02-10T07:11:21.427Z,-0.97
2017-02-10T07:12:21.308Z,-0.91
2017-02-10T07:13:21.305Z,-0.89
2017-02-10T07:14:21.315Z,-1.09
2017-02-10T07:15:21.315Z,-1
2017-02-10T07:16:21.324Z,-1.05
2017-02-10T07:17:21.398Z,-0.81
2017-02-10T07:18:21.343Z,-0.94
2017-02-10T07:19:21.416Z,-0.91
2017-02-10T07:20:21.353Z,-0.97
2017-02-10T07:21:21.377Z,-1
2017-02-10T07:22:21.338Z,-0.91
2017-02-10T07:23:21.528Z,-0.94
2017-02-10T07:24:21.935Z,-1.09
2017-02-10T07:25:21.338Z,-0.99
2017-02-10T07:26:21.370Z,-1.03
2017-02-10T07:27:21.317Z,-0.99
2017-02-10T07:28:21.375Z,-0.94
2017-02-10T07:29:21.402Z,-0.86
2017-02-10T07:30:21.308Z,-0.87
2017-02-10T07:31:21.368Z,-0.84
2017-02-10T07:32:21.303Z,-0.99
2017-02-10T07:33:21.647Z,-0.89
2017-02-10T07:34:21.340Z,-0.89
2017-02-10T07:35:21.323Z,-0.89
2017-02-10T07:36:21.426Z,-0.94
2017-02-10T07:37:22.120Z,-0.95
2017-02-10T07:38:21.296Z,-0.91
2017-02-10T07:39:21.335Z,-0.86
2017-02-10T07:40:21.368Z,-0.84
2017-02-10T07:41:21.302Z,-0.91
2017-02-10T07:42:21.467Z,-0.77
2017-02-10T07:43:21.413Z,-0.87
2017-02-10T07:44:21.866Z,-0.83
2017-02-10T07:45:21.504Z,-0.99
2017-02-10T07:46:21.299Z,-0.87
2017-02-10T07:47:21.431Z,-0.87
2017-02-10T07:48:21.302Z,-0.94
2017-02-10T07:49:21.332Z,-0.87
2017-02-10T07:50:21.402Z,-0.94
2017-02-10T07:51:21.524Z,-0.91
2017-02-10T07:52:21.357Z,-0.8
2017-02-10T07:53:21.301Z,-0.81
2017-02-10T07:54:21.333Z,-0.83
2017-02-10T07:55:21.328Z,-0.8
2017-02-10T07:56:21.389Z,-0.83
2017-02-10T07:57:21.335Z,-0.69
2017-02-10T07:58:21.305Z,-0.84
2017-02-10T07:59:21.318Z,-0.77
2017-02-10T08:00:21.324Z,-0.86
2017-02-10T08:01:21.517Z,-0.86
2017-02-10T08:02:21.793Z,-0.7
2017-02-10T08:03:21.299Z,-0.84
2017-02-10T08:04:21.555Z,-0.91
2017-02-10T08:05:21.372Z,-0.73
2017-02-10T08:06:21.343Z,-0.73
2017-02-10T08:07:21.354Z,-0.7
2017-02-10T08:08:21.436Z,-0.78
2017-02-10T08:09:21.637Z,-0.78
2017-02-10T08:10:21.481Z,-0.6
2017-02-10T08:11:21.364Z,-0.7
2017-02-10T08:12:21.549Z,-0.78
2017-02-10T08:13:21.318Z,-0.62
2017-02-10T08:14:21.326Z,-0.7
2017-02-10T08:15:21.382Z,-0.69
2017-02-10T08:16:21.313Z,-0.65
2017-02-10T08:17:21.385Z,-0.65
2017-02-10T08:18:21.317Z,-0.54
2017-02-10T08:19:21.338Z,-0.6
2017-02-10T08:20:21.407Z,-0.52
2017-02-10T08:21:21.334Z,-0.66
2017-02-10T08:22:21.427Z,-0.54
2017-02-10T08:23:21.348Z,-0.42
2017-02-10T08:24:21.341Z,-0.62
2017-02-10T08:25:21.340Z,-0.59
2017-02-10T08:26:21.345Z,-0.57
2017-02-10T08:27:21.347Z,-0.59
2017-02-10T08:28:21.426Z,-0.55
2017-02-10T08:29:21.324Z,-0.57
2017-02-10T08:30:21.356Z,-0.55
2017-02-10T08:31:21.355Z,-0.52
2017-02-10T08:32:21.334Z,-0.55
2017-02-10T08:33:21.352Z,-0.44
2017-02-10T08:34:21.408Z,-0.52
2017-02-10T08:35:21.407Z,-0.54
2017-02-10T08:36:21.349Z,-0.54
2017-02-10T08:37:21.367Z,-0.47
2017-02-10T08:38:21.341Z,-0.31
2017-02-10T08:39:21.989Z,-0.57
2017-02-10T08:40:21.389Z,-0.44
2017-02-10T08:41:21.364Z,-0.57
2017-02-10T08:42:21.377Z,-0.5
2017-02-10T08:43:21.396Z,-0.47
2017-02-10T08:44:21.350Z,-0.37
2017-02-10T08:45:21.360Z,-0.44
2017-02-10T08:46:21.372Z,-0.34
2017-02-10T08:47:21.566Z,-0.39
2017-02-10T08:48:21.355Z,-0.29
2017-02-10T08:49:21.341Z,-0.34
2017-02-10T08:50:21.696Z,-0.36
2017-02-10T08:51:21.332Z,-0.19
2017-02-10T08:52:21.369Z,-0.29
2017-02-10T08:53:21.355Z,-0.23
2017-02-10T08:54:21.332Z,-0.33
2017-02-10T08:55:21.342Z,-0.24
2017-02-10T08:56:21.352Z,-0.31
2017-02-10T08:57:21.355Z,-0.33
2017-02-10T08:58:21.344Z,-0.23
2017-02-10T08:59:21.343Z,-0.27
2017-02-10T09:00:21.353Z,-0.11
2017-02-10T09:01:21.421Z,-0.12
2017-02-10T09:02:21.419Z,-0.06
2017-02-10T09:03:21.353Z,-0.18
2017-02-10T09:04:21.370Z,0.03
2017-02-10T09:05:21.403Z,-0.13
2017-02-10T09:06:21.383Z,-0.01
2017-02-10T09:07:21.389Z,-0.09
2017-02-10T09:08:21.368Z,-0.12
2017-02-10T09:09:21.392Z,-0.11
2017-02-10T09:10:21.348Z,-0.09
2017-02-10T09:11:21.363Z,-0.09
2017-02-10T09:12:21.368Z,0.02
2017-02-10T09:13:21.404Z,-0.11
2017-02-10T09:14:21.358Z,-0.04
2017-02-10T09:15:21.343Z,0
2017-02-10T09:16:21.351Z,-0.04
2017-02-10T09:17:21.430Z,0.03
2017-02-10T09:18:21.387Z,0.06
2017-02-10T09:19:21.353Z,0.02
2017-02-10T09:20:21.404Z,0.03
2017-02-10T09:21:21.385Z,-0.06
2017-02-10T09:22:21.359Z,0.03
2017-02-10T09:23:21.360Z,0.03
2017-02-10T09:24:21.656Z,0.1
2017-02-10T09:25:21.378Z,0.07
2017-02-10T09:26:21.570Z,0.1
2017-02-10T09:27:21.382Z,0.05
2017-02-10T09:28:21.414Z,0.09
2017-02-10T09:29:21.371Z,-0.01
2017-02-10T09:30:21.350Z,0.07
2017-02-10T09:31:21.381Z,0.07
2017-02-10T09:32:21.429Z,0.06
2017-02-10T09:33:21.419Z,0
2017-02-10T09:34:21.392Z,0.03
2017-02-10T09:35:21.382Z,0.03
2017-02-10T09:36:21.447Z,0.07
2017-02-10T09:37:21.360Z,0.23
2017-02-10T09:38:21.382Z,0.12
2017-02-10T09:39:21.394Z,0.15
2017-02-10T09:40:23.635Z,0.23
2017-02-10T09:41:21.456Z,0.16
2017-02-10T09:42:21.397Z,0.36
2017-02-10T09:43:21.383Z,0.39
2017-02-10T09:44:21.390Z,0.24
2017-02-10T09:45:21.450Z,0.39
2017-02-10T09:46:21.419Z,0.3
2017-02-10T09:47:21.613Z,0.42
2017-02-10T09:48:21.418Z,0.24
2017-02-10T09:49:21.471Z,0.34
2017-02-10T09:50:21.430Z,0.34
2017-02-10T09:51:21.413Z,0.41
2017-02-10T09:52:21.403Z,0.33
2017-02-10T09:53:21.392Z,0.51
2017-02-10T09:54:21.389Z,0.36
2017-02-10T09:55:21.411Z,0.34
2017-02-10T09:56:21.400Z,0.43
2017-02-10T09:57:25.169Z,0.38
2017-02-10T09:58:24.184Z,0.36
2017-02-10T09:59:24.442Z,0.38
2017-02-10T10:00:25.263Z,0.52
2017-02-10T10:01:24.573Z,0.45
2017-02-10T10:02:23.718Z,0.46
2017-02-10T10:03:24.461Z,0.57
2017-02-10T10:04:23.546Z,0.36
2017-02-10T10:05:24.010Z,0.57
2017-02-10T10:06:23.978Z,0.49
2017-02-10T10:07:24.104Z,0.51
2017-02-10T10:08:23.964Z,0.49
2017-02-10T10:09:24.913Z,0.46
2017-02-10T10:10:25.047Z,0.48
2017-02-10T10:11:24.355Z,0.28
2017-02-10T10:12:24.357Z,0.46
2017-02-10T10:13:25.678Z,0.28
2017-02-10T10:14:25.698Z,0.33
2017-02-10T10:15:24.215Z,0.42
2017-02-10T10:16:25.004Z,0.25
2017-02-10T10:17:25.177Z,0.41
2017-02-10T10:18:24.315Z,0.45
2017-02-10T10:19:25.498Z,0.25
2017-02-10T10:20:25.688Z,0.38
2017-02-10T10:21:23.688Z,0.3
2017-02-10T10:22:24.621Z,0.41
2017-02-10T10:23:23.494Z,0.34
2017-02-10T10:24:24.428Z,0.31
2017-02-10T10:25:24.078Z,0.3
2017-02-10T10:26:24.361Z,0.34
2017-02-10T10:27:25.950Z,0.23
2017-02-10T10:28:24.596Z,0.34
2017-02-10T10:29:24.375Z,0.21
2017-02-10T10:30:24.501Z,0.34
2017-02-10T10:31:26.557Z,0.28
2017-02-10T10:32:24.230Z,0.27
2017-02-10T10:33:23.152Z,0.36
2017-02-10T10:34:22.790Z,0.28
2017-02-10T10:35:25.158Z,0.18
2017-02-10T10:36:27.534Z,0.23
2017-02-10T10:37:24.463Z,0.2
2017-02-10T10:38:26.973Z,0.36
2017-02-10T10:39:24.533Z,0.2
2017-02-10T10:40:25.005Z,0.16
2017-02-10T10:41:24.208Z,0.13
2017-02-10T10:42:23.587Z,0.28
2017-02-10T10:43:24.447Z,0.07
2017-02-10T10:44:24.247Z,0.28
2017-02-10T10:45:24.764Z,0.21
2017-02-10T10:46:26.169Z,0.2
2017-02-10T10:47:25.557Z,0.41
2017-02-10T10:48:24.335Z,0.38
2017-02-10T10:49:23.866Z,0.41
2017-02-10T10:50:24.007Z,0.28
2017-02-10T10:51:25.330Z,0.43
2017-02-10T10:52:26.068Z,0.23
2017-02-10T10:53:24.915Z,0.33
2017-02-10T10:54:24.353Z,0.34
2017-02-10T10:55:24.556Z,0.38
2017-02-10T10:56:28.934Z,0.45
2017-02-10T10:57:24.223Z,0.38
2017-02-10T10:58:25.175Z,0.34
2017-02-10T10:59:24.191Z,0.33
2017-02-10T11:00:24.457Z,0.43
2017-02-10T11:01:24.833Z,0.33
2017-02-10T11:02:21.490Z,0.43
2017-02-10T11:03:24.543Z,0.45
2017-02-10T11:04:25.046Z,0.39
2017-02-10T11:05:24.654Z,0.52
2017-02-10T11:06:23.307Z,0.58
2017-02-10T11:07:24.678Z,0.39
2017-02-10T11:08:25.655Z,0.49
2017-02-10T11:09:26.396Z,0.41
2017-02-10T11:10:24.814Z,0.43
2017-02-10T11:11:23.154Z,0.33
2017-02-10T11:12:21.520Z,0.33
2017-02-10T11:13:21.907Z,0.27
2017-02-10T11:14:21.446Z,0.33
2017-02-10T11:15:21.678Z,0.38
2017-02-10T11:16:22.400Z,0.24
2017-02-10T11:17:21.436Z,0.49
2017-02-10T11:18:21.466Z,0.48
2017-02-10T11:19:21.746Z,0.42
2017-02-10T11:20:21.474Z,0.42
2017-02-10T11:21:21.441Z,0.45
2017-02-10T11:22:21.599Z,0.36
2017-02-10T11:23:21.549Z,0.34
2017-02-10T11:24:21.633Z,0.38
2017-02-10T11:25:22.883Z,0.51
2017-02-10T11:26:21.459Z,0.45
2017-02-10T11:27:21.466Z,0.33
2017-02-10T11:28:22.304Z,0.39
2017-02-10T11:29:21.457Z,0.23
2017-02-10T11:30:22.258Z,0.38
2017-02-10T11:31:21.456Z,0.45
2017-02-10T11:32:21.478Z,0.24
2017-02-10T11:33:21.462Z,0.42
2017-02-10T11:34:22.454Z,0.23
2017-02-10T11:35:21.600Z,0.38
2017-02-10T11:36:21.467Z,0.48
2017-02-10T11:37:21.626Z,0.39
2017-02-10T11:38:21.501Z,0.46
2017-02-10T11:39:21.509Z,0.36
2017-02-10T11:40:21.543Z,0.53
2017-02-10T11:41:21.463Z,0.34
2017-02-10T11:42:22.219Z,0.42
2017-02-10T11:43:21.674Z,0.41
2017-02-10T11:44:21.638Z,0.52
2017-02-10T11:45:21.477Z,0.49
2017-02-10T11:46:21.438Z,0.52
2017-02-10T11:47:21.568Z,0.38
2017-02-10T11:48:21.715Z,0.51
2017-02-10T11:49:22.198Z,0.52
2017-02-10T11:50:22.747Z,0.43
2017-02-10T11:51:21.571Z,0.45
2017-02-10T11:52:21.465Z,0.31
2017-02-10T11:53:21.456Z,0.34
2017-02-10T11:54:21.456Z,0.39
2017-02-10T11:55:21.477Z,0.45
2017-02-10T11:56:21.493Z,0.43
2017-02-10T11:57:21.487Z,0.38
2017-02-10T11:58:21.476Z,0.43
2017-02-10T11:59:21.664Z,0.53
2017-02-10T12:00:21.612Z,0.57
2017-02-10T12:01:21.483Z,0.61
2017-02-10T12:02:21.465Z,0.49
2017-02-10T12:03:21.467Z,0.45
2017-02-10T12:04:21.506Z,0.58
2017-02-10T12:05:21.468Z,0.57
2017-02-10T12:06:21.460Z,0.61
2017-02-10T12:07:21.469Z,0.6
2017-02-10T12:08:21.523Z,0.53
2017-02-10T12:09:21.474Z,0.42
2017-02-10T12:10:21.454Z,0.52
2017-02-10T12:11:21.481Z,0.43
2017-02-10T12:12:21.486Z,0.45
2017-02-10T12:13:21.477Z,0.61
2017-02-10T12:14:21.494Z,0.57
2017-02-10T12:15:21.468Z,0.72
2017-02-10T12:16:21.465Z,0.71
2017-02-10T12:17:21.535Z,0.48
2017-02-10T12:18:21.486Z,0.65
2017-02-10T12:19:21.480Z,0.51
2017-02-10T12:20:21.493Z,0.53
2017-02-10T12:21:21.468Z,0.58
2017-02-10T12:22:21.492Z,0.61
2017-02-10T12:23:21.469Z,0.57
2017-02-10T12:24:21.708Z,0.52
2017-02-10T12:25:21.473Z,0.48
2017-02-10T12:26:21.464Z,0.64
2017-02-10T12:27:21.521Z,0.61
2017-02-10T12:28:21.484Z,0.65
2017-02-10T12:29:21.481Z,0.65
2017-02-10T12:30:21.480Z,0.41
2017-02-10T12:31:21.481Z,0.7
2017-02-10T12:32:21.517Z,0.39
2017-02-10T12:33:21.486Z,0.57
2017-02-10T12:34:21.493Z,0.43
2017-02-10T12:35:21.465Z,0.42
2017-02-10T12:36:21.498Z,0.46
2017-02-10T12:37:21.515Z,0.49
2017-02-10T12:38:21.504Z,0.43
2017-02-10T12:39:21.532Z,0.49
2017-02-10T12:40:21.505Z,0.57
2017-02-10T12:41:21.497Z,0.43
2017-02-10T12:42:21.483Z,0.46
2017-02-10T12:43:21.492Z,0.53
2017-02-10T12:44:21.489Z,0.48
2017-02-10T12:45:21.512Z,0.46
2017-02-10T12:46:21.508Z,0.34
2017-02-10T12:47:21.478Z,0.45
2017-02-10T12:48:21.496Z,0.58
2017-02-10T12:49:21.498Z,0.46
2017-02-10T12:50:21.517Z,0.49
2017-02-10T12:51:21.563Z,0.41
2017-02-10T12:52:21.499Z,0.41
2017-02-10T12:53:21.486Z,0.58
2017-02-10T12:54:21.504Z,0.58
2017-02-10T12:55:21.493Z,0.57
2017-02-10T12:56:21.514Z,0.49
2017-02-10T12:57:21.517Z,0.6
2017-02-10T12:58:21.513Z,0.68
2017-02-10T12:59:21.489Z,0.62
2017-02-10T13:00:21.499Z,0.51
2017-02-10T13:01:21.503Z,0.57
2017-02-10T13:02:21.490Z,0.61
2017-02-10T13:03:21.493Z,0.64